Time;durP1;ratioP1;P1;durP2;ratioP2;P2;SDS_P1;SDS_P2;PMS_P1;PMS_P2;Temp;Humidity;BMP_temperature;BMP_pressure;BME280_temperature;BME280_humidity;BME280_pressure;Samples;Min_cycle;Max_cycle;Signal;HPM_P1;HPM_P2
2024/01/31 00:02:26;;;;;;;18.63;9.68;;;;;;;1.07;89.09;100495.75;6252591;22;20449;-93
2024/01/31 00:04:52;;;;;;;14.43;7.95;;;;;;;1.07;88.93;100498.38;6253911;22;20110;-92
2024/01/31 00:07:17;;;;;;;22.65;10.82;;;;;;;0.84;89.96;100477.41;6254036;22;20047;-92
2024/01/31 00:09:43;;;;;;;25.80;10.43;;;;;;;0.74;91.76;100491.00;6254126;22;20026;-94
2024/01/31 00:12:09;;;;;;;20.73;10.05;;;;;;;0.56;93.17;100478.91;6254325;22;20028;-92
2024/01/31 00:14:35;;;;;;;22.20;11.05;;;;;;;0.54;94.10;100461.38;6253972;22;20012;-91
2024/01/31 00:17:01;;;;;;;16.60;8.43;;;;;;;1.04;92.66;100535.81;6279963;22;20094;-93
2024/01/31 00:19:28;;;;;;;16.55;7.28;;;;;;;0.93;92.50;100511.84;6253830;22;20096;-93
2024/01/31 00:21:54;;;;;;;10.77;6.22;;;;;;;0.94;91.80;100503.13;6253578;22;20004;-93
2024/01/31 00:24:20;;;;;;;13.07;6.57;;;;;;;0.91;90.77;100500.41;6254008;22;20023;-92
2024/01/31 00:26:46;;;;;;;22.13;7.57;;;;;;;0.98;91.40;100501.53;6252937;22;20373;-92
2024/01/31 00:29:11;;;;;;;18.60;8.38;;;;;;;1.11;91.07;100524.75;6253337;22;20157;-91
2024/01/31 00:31:37;;;;;;;19.65;9.13;;;;;;;0.99;92.03;100512.06;6252898;22;20015;-93
2024/01/31 00:34:03;;;;;;;15.13;8.02;;;;;;;1.01;92.43;100519.97;6254347;22;20016;-93
2024/01/31 00:36:30;;;;;;;18.88;8.70;;;;;;;0.76;92.71;100479.75;6254343;22;20026;-95
2024/01/31 00:38:56;;;;;;;21.42;8.43;;;;;;;0.91;92.37;100494.25;6253995;22;20468;-93
2024/01/31 00:41:22;;;;;;;11.50;6.63;;;;;;;1.01;91.21;100506.88;6253803;22;20110;-93
2024/01/31 00:43:49;;;;;;;15.65;6.63;;;;;;;0.96;91.57;100518.91;6253811;22;20027;-92
2024/01/31 00:46:15;;;;;;;11.88;6.80;;;;;;;1.09;91.12;100536.03;6252411;22;20031;-92
2024/01/31 00:48:42;;;;;;;15.85;8.15;;;;;;;1.09;90.88;100538.63;6253954;22;20439;-93
2024/01/31 00:51:10;;;;;;;16.20;8.88;;;;;;;0.88;92.77;100526.47;6253642;22;20138;-92
2024/01/31 00:53:37;;;;;;;14.07;8.18;;;;;;;0.91;92.64;100526.59;6253620;22;20030;-93
2024/01/31 00:56:04;;;;;;;15.00;7.60;;;;;;;0.82;92.87;100520.97;6253795;22;20388;-91
2024/01/31 00:58:31;;;;;;;14.30;7.65;;;;;;;0.71;93.12;100507.44;6253697;22;20016;-91
2024/01/31 01:00:57;;;;;;;16.95;8.88;;;;;;;0.84;93.57;100542.88;6251956;22;20024;-92
2024/01/31 01:03:23;;;;;;;19.63;9.32;;;;;;;0.86;94.44;100538.59;6253775;22;20595;-94
2024/01/31 01:05:49;;;;;;;24.00;9.35;;;;;;;0.82;95.32;100548.06;6253996;22;20442;-92
2024/01/31 01:08:15;;;;;;;20.42;8.82;;;;;;;0.25;94.45;100455.84;6253994;22;20012;-92
2024/01/31 01:10:42;;;;;;;19.92;8.82;;;;;;;0.50;94.39;100502.25;6252683;22;20469;-93
2024/01/31 01:13:08;;;;;;;14.18;7.70;;;;;;;0.50;94.71;100507.47;6253457;22;20023;-92
2024/01/31 01:15:33;;;;;;;14.98;7.88;;;;;;;0.52;95.16;100518.91;6252643;22;20023;-94
2024/01/31 01:17:59;;;;;;;18.25;7.63;;;;;;;0.74;95.20;100540.75;6253435;22;20016;-93
2024/01/31 01:20:25;;;;;;;21.75;9.73;;;;;;;0.62;95.90;100517.56;6253488;22;20016;-93
2024/01/31 01:22:51;;;;;;;15.43;7.40;;;;;;;0.46;95.23;100482.00;6253833;22;20027;-91
2024/01/31 01:25:17;;;;;;;14.00;6.47;;;;;;;0.55;96.36;100513.78;6253621;22;20020;-92
2024/01/31 01:27:50;;;;;;;18.02;6.88;;;;;;;0.61;96.28;100524.53;6253259;22;20077;-91
2024/01/31 01:30:17;;;;;;;12.75;6.15;;;;;;;0.34;95.48;100478.88;6252283;22;20019;-92
2024/01/31 01:32:43;;;;;;;13.10;5.55;;;;;;;0.51;95.49;100509.25;6253565;22;20028;-92
2024/01/31 01:35:08;;;;;;;16.83;6.88;;;;;;;0.68;95.37;100533.50;6253482;22;20389;-92
2024/01/31 01:37:34;;;;;;;15.45;7.32;;;;;;;0.28;95.68;100469.03;6253610;22;20019;-92
2024/01/31 01:40:00;;;;;;;13.35;7.30;;;;;;;0.49;95.43;100492.59;6253027;22;20019;-93
2024/01/31 01:42:26;;;;;;;15.55;6.28;;;;;;;0.68;95.11;100528.28;6253207;22;20098;-93
2024/01/31 01:44:53;;;;;;;13.63;6.35;;;;;;;0.55;95.68;100507.66;6253024;22;20450;-92
2024/01/31 01:47:19;;;;;;;15.73;6.88;;;;;;;0.67;95.29;100529.09;6252769;22;20020;-94
2024/01/31 01:49:47;;;;;;;15.07;6.30;;;;;;;0.58;95.21;100520.88;6253299;22;20070;-93
2024/01/31 01:52:13;;;;;;;14.38;7.47;;;;;;;0.61;96.74;100542.84;6252982;22;20027;-94
2024/01/31 01:54:39;;;;;;;14.48;7.05;;;;;;;0.51;96.46;100522.34;6251868;22;20077;-93
2024/01/31 01:57:08;;;;;;;13.50;5.78;;;;;;;0.43;96.89;100502.81;6253404;22;20047;-92
2024/01/31 01:59:35;;;;;;;11.27;6.35;;;;;;;0.39;98.19;100516.59;6253253;22;20338;-92
2024/01/31 02:02:03;;;;;;;10.60;5.28;;;;;;;0.52;98.68;100513.69;6252199;22;20026;-93
2024/01/31 02:04:29;;;;;;;11.45;5.50;;;;;;;0.68;96.46;100528.28;6253189;22;20040;-94
2024/01/31 02:06:55;;;;;;;13.23;6.22;;;;;;;0.47;98.49;100533.50;6253093;22;20441;-92
2024/01/31 02:09:22;;;;;;;15.70;6.35;;;;;;;0.33;97.80;100511.13;6253115;22;20404;-92
2024/01/31 02:11:48;;;;;;;11.30;5.15;;;;;;;0.11;96.96;100444.81;6253225;22;20462;-93
2024/01/31 02:14:16;;;;;;;10.70;5.53;;;;;;;0.46;96.75;100510.81;6254233;22;20442;-93
2024/01/31 02:16:44;;;;;;;13.15;5.28;;;;;;;0.03;97.39;100434.88;6256749;22;20015;-94
2024/01/31 02:19:11;;;;;;;11.75;5.70;;;;;;;0.34;98.34;100489.34;6253024;22;20726;-94
2024/01/31 02:21:42;;;;;;;13.57;5.22;;;;;;;-0.07;99.16;100433.56;6252963;22;20061;-92
2024/01/31 02:24:09;;;;;;;9.45;4.97;;;;;;;0.33;98.65;100495.44;6254053;22;20438;-92
2024/01/31 02:26:35;;;;;;;15.18;6.22;;;;;;;0.43;98.45;100523.75;6253068;22;20026;-93
2024/01/31 02:29:01;;;;;;;8.75;4.82;;;;;;;0.10;99.38;100458.72;6253384;22;20426;-93
2024/01/31 02:31:27;;;;;;;13.38;6.65;;;;;;;0.20;99.45;100489.66;6252060;22;20015;-92
2024/01/31 02:33:52;;;;;;;13.30;4.95;;;;;;;0.28;100.00;100502.16;6252814;22;20004;-94
2024/01/31 02:36:19;;;;;;;13.38;7.18;;;;;;;-0.07;100.00;100436.19;6253113;22;20083;-93
2024/01/31 02:38:45;;;;;;;10.77;6.57;;;;;;;0.30;99.57;100497.91;6252077;22;20019;-93
2024/01/31 02:41:13;;;;;;;13.60;6.40;;;;;;;0.36;98.63;100501.66;6251634;22;20023;-93
2024/01/31 02:43:38;;;;;;;15.52;7.65;;;;;;;0.40;99.04;100500.06;6253041;22;20023;-92
2024/01/31 02:46:05;;;;;;;14.18;7.22;;;;;;;0.30;97.33;100464.75;6251758;22;20471;-94
2024/01/31 02:48:31;;;;;;;13.32;6.32;;;;;;;0.29;98.29;100473.47;6252948;22;20039;-92
2024/01/31 02:50:56;;;;;;;15.90;7.45;;;;;;;0.25;99.45;100481.13;6252717;22;20015;-93
2024/01/31 02:53:22;;;;;;;13.65;7.35;;;;;;;0.14;99.92;100464.97;6252202;22;20207;-92
2024/01/31 02:55:48;;;;;;;15.85;7.45;;;;;;;0.02;100.00;100451.38;6252697;22;20012;-93
2024/01/31 02:58:16;;;;;;;13.13;5.88;;;;;;;0.13;100.00;100477.16;6279574;22;20367;-92
2024/01/31 03:00:41;;;;;;;12.73;6.40;;;;;;;-0.04;100.00;100454.63;6251784;22;20453;-93
2024/01/31 03:03:07;;;;;;;16.40;7.68;;;;;;;0.01;99.56;100436.53;6252802;22;20020;-92
2024/01/31 03:05:33;;;;;;;13.15;6.80;;;;;;;-0.33;100.00;100399.34;6252246;22;20027;-91
2024/01/31 03:07:59;;;;;;;17.73;8.77;;;;;;;-0.10;100.00;100459.59;6252768;22;20019;-91
2024/01/31 03:10:25;;;;;;;19.17;8.63;;;;;;;0.10;100.00;100484.88;6252486;22;20020;-93
2024/01/31 03:12:51;;;;;;;19.00;8.65;;;;;;;0.02;100.00;100469.69;6252626;22;20023;-92
2024/01/31 03:15:19;;;;;;;16.60;7.88;;;;;;;0.04;100.00;100476.75;6251403;22;19999;-93
2024/01/31 03:17:44;;;;;;;15.80;7.47;;;;;;;-0.04;100.00;100462.47;6252227;22;20015;-92
2024/01/31 03:20:11;;;;;;;14.70;7.97;;;;;;;-0.02;100.00;100458.22;6252199;22;20110;-91
2024/01/31 03:22:37;;;;;;;17.77;7.32;;;;;;;-0.01;100.00;100478.28;6250856;22;20016;-91
2024/01/31 03:25:04;;;;;;;13.68;7.45;;;;;;;-0.15;100.00;100468.94;6255474;22;20050;-93
2024/01/31 03:27:29;;;;;;;16.83;7.78;;;;;;;-0.13;100.00;100467.28;6252365;22;20054;-93
2024/01/31 03:30:01;;;;;;;16.35;8.68;;;;;;;-0.27;100.00;100441.44;6252527;22;20023;-93
2024/01/31 03:32:31;;;;;;;11.23;6.75;;;;;;;-0.17;100.00;100467.97;6252126;22;20103;-93
2024/01/31 03:34:57;;;;;;;12.27;6.30;;;;;;;-0.12;100.00;100464.75;6252296;22;20086;-93
2024/01/31 03:37:23;;;;;;;14.40;6.38;;;;;;;-0.10;100.00;100472.69;6252425;22;20024;-91
2024/01/31 03:39:49;;;;;;;9.68;4.75;;;;;;;-0.15;100.00;100471.56;6252409;22;20016;-93
2024/01/31 03:42:15;;;;;;;9.98;5.95;;;;;;;-0.13;100.00;100465.59;6252821;22;20350;-92
2024/01/31 03:44:40;;;;;;;14.00;6.03;;;;;;;-0.09;100.00;100474.44;6251901;22;20022;-92
2024/01/31 03:47:06;;;;;;;9.63;5.53;;;;;;;-0.25;100.00;100437.19;6251512;22;20430;-92
2024/01/31 03:49:33;;;;;;;11.75;5.78;;;;;;;-0.13;100.00;100462.06;6252265;22;20047;-93
2024/01/31 03:51:59;;;;;;;13.70;6.40;;;;;;;-0.13;100.00;100462.97;6252254;22;20023;-92
2024/01/31 03:54:25;;;;;;;8.93;5.50;;;;;;;-0.15;100.00;100463.72;6252770;22;20020;-93
2024/01/31 03:56:51;;;;;;;12.02;6.47;;;;;;;-0.65;100.00;100383.22;6252321;22;20083;-93
2024/01/31 03:59:17;;;;;;;21.98;7.47;;;;;;;-0.48;100.00;100425.75;6252503;22;20050;-93
2024/01/31 04:01:42;;;;;;;19.50;6.97;;;;;;;-0.64;100.00;100412.81;6251578;22;20016;-93
2024/01/31 04:04:08;;;;;;;10.55;6.05;;;;;;;-0.44;100.00;100471.19;6253314;22;20114;-93
2024/01/31 04:06:36;;;;;;;15.07;7.47;;;;;;;-0.58;100.00;100439.22;6252601;22;20031;-93
2024/01/31 04:09:01;;;;;;;15.82;7.90;;;;;;;-0.97;100.00;100383.50;6253781;22;20073;-92
2024/01/31 04:11:34;;;;;;;11.23;5.63;;;;;;;-0.91;100.00;100391.59;6256376;22;20024;-93
2024/01/31 04:14:00;;;;;;;15.00;6.20;;;;;;;-0.66;100.00;100428.44;6261392;22;20015;-92
2024/01/31 04:16:26;;;;;;;11.73;6.03;;;;;;;-0.32;100.00;100481.31;6253445;22;20086;-91
2024/01/31 04:18:51;;;;;;;11.63;7.25;;;;;;;-0.36;100.00;100485.50;6254114;22;20438;-93
2024/01/31 04:21:22;;;;;;;13.68;7.15;;;;;;;-0.78;100.00;100414.84;6254740;22;20024;-92
2024/01/31 04:23:49;;;;;;;12.93;6.95;;;;;;;-0.54;100.00;100466.38;6254653;22;20026;-93
2024/01/31 04:26:15;;;;;;;15.48;8.05;;;;;;;-0.89;100.00;100401.31;6254063;22;20029;-91
2024/01/31 04:28:40;;;;;;;15.35;8.02;;;;;;;-0.67;100.00;100458.00;6254138;22;20047;-93
2024/01/31 04:31:12;;;;;;;13.02;7.07;;;;;;;-0.75;100.00;100438.47;6253389;22;20015;-92
2024/01/31 04:33:37;;;;;;;14.48;6.82;;;;;;;-0.58;100.00;100470.59;6254234;22;20047;-93
2024/01/31 04:36:04;;;;;;;16.20;7.85;;;;;;;-0.62;100.00;100447.75;6253948;22;20028;-92
2024/01/31 04:38:29;;;;;;;15.02;6.22;;;;;;;-0.47;100.00;100473.69;6254458;22;20028;-92
2024/01/31 04:40:57;;;;;;;12.25;7.45;;;;;;;-0.58;100.00;100467.97;6253893;22;20026;-91
2024/01/31 04:43:23;;;;;;;12.65;7.20;;;;;;;-0.54;100.00;100467.28;6253720;22;20015;-91
2024/01/31 04:45:48;;;;;;;17.00;8.07;;;;;;;-0.51;100.00;100463.91;6252758;22;20074;-92
2024/01/31 04:48:14;;;;;;;12.82;6.72;;;;;;;-0.52;100.00;100457.81;6253437;22;20003;-94
2024/01/31 04:50:40;;;;;;;12.85;6.65;;;;;;;-0.37;100.00;100481.06;6255433;22;20460;-93
2024/01/31 04:53:06;;;;;;;11.55;6.63;;;;;;;-0.58;100.00;100439.22;6252301;22;20016;-92
2024/01/31 04:55:32;;;;;;;14.13;7.32;;;;;;;-0.74;100.00;100408.91;6253178;22;20020;-92
2024/01/31 04:57:59;;;;;;;10.25;5.63;;;;;;;-0.49;100.00;100467.50;6253913;22;20043;-93
2024/01/31 05:00:26;;;;;;;15.23;6.57;;;;;;;-0.68;100.00;100437.91;6252790;22;20094;-94
2024/01/31 05:02:52;;;;;;;16.05;6.82;;;;;;;-0.87;100.00;100425.75;6253565;22;20026;-93
2024/01/31 05:05:19;;;;;;;14.95;7.80;;;;;;;-0.74;100.00;100449.81;6253719;22;20024;-93
2024/01/31 05:07:45;;;;;;;15.15;6.47;;;;;;;-1.10;100.00;100402.94;6253380;22;20433;-94
2024/01/31 05:10:11;;;;;;;11.00;6.35;;;;;;;-0.92;100.00;100442.03;6253570;22;20027;-93
2024/01/31 05:12:37;;;;;;;14.77;6.93;;;;;;;-0.80;100.00;100457.34;6253712;22;20016;-93
2024/01/31 05:15:06;;;;;;;12.13;5.88;;;;;;;-0.73;100.00;100481.22;6251921;22;20050;-93
2024/01/31 05:17:32;;;;;;;10.63;6.18;;;;;;;-0.76;100.00;100464.50;6253330;22;20019;-93
2024/01/31 05:19:58;;;;;;;12.10;5.55;;;;;;;-0.85;100.00;100452.84;6253346;22;20397;-92
2024/01/31 05:22:25;;;;;;;12.88;6.35;;;;;;;-0.57;100.00;100497.59;6253532;22;20015;-93
2024/01/31 05:24:51;;;;;;;15.02;6.13;;;;;;;-0.63;100.00;100482.53;6253442;22;20023;-93
2024/01/31 05:27:17;;;;;;;15.82;6.32;;;;;;;-0.87;100.00;100445.75;6253340;22;20023;-94
2024/01/31 05:29:42;;;;;;;9.63;5.00;;;;;;;-0.54;100.00;100495.13;6253770;22;20004;-93
2024/01/31 05:32:10;;;;;;;12.48;6.35;;;;;;;-0.98;100.00;100421.75;6252472;22;20437;-93
2024/01/31 05:34:35;;;;;;;13.45;5.75;;;;;;;-0.89;100.00;100432.63;6253482;22;20020;-91
2024/01/31 05:37:01;;;;;;;11.30;6.07;;;;;;;-0.47;100.00;100511.16;6252151;22;20107;-93
2024/01/31 05:39:27;;;;;;;14.38;6.50;;;;;;;-0.46;100.00;100491.13;6254563;22;20111;-93
2024/01/31 05:41:53;;;;;;;12.45;5.63;;;;;;;-0.33;100.00;100493.47;6254464;22;20592;-93
2024/01/31 05:44:20;;;;;;;15.60;7.20;;;;;;;-0.36;100.00;100480.28;6253355;22;20031;-94
2024/01/31 05:46:46;;;;;;;17.17;7.57;;;;;;;-0.55;100.00;100462.00;6252582;22;20441;-93
2024/01/31 05:49:13;;;;;;;18.95;8.38;;;;;;;-0.80;100.00;100413.88;6253615;22;20051;-93
2024/01/31 05:51:39;;;;;;;15.50;9.02;;;;;;;-0.44;100.00;100460.75;6252989;22;20015;-91
2024/01/31 05:54:05;;;;;;;15.88;9.30;;;;;;;-0.35;100.00;100489.88;6253104;22;20110;-92
2024/01/31 05:56:31;;;;;;;18.27;8.32;;;;;;;-0.25;100.00;100489.47;6253560;22;20011;-94
2024/01/31 05:58:57;;;;;;;15.27;7.13;;;;;;;-0.45;100.00;100472.03;6253223;22;20023;-93
2024/01/31 06:01:23;;;;;;;8.25;5.72;;;;;;;-0.78;100.00;100429.59;6252476;22;20028;-93
2024/01/31 06:03:49;;;;;;;12.20;6.25;;;;;;;-0.50;100.00;100478.75;6252642;22;20016;-92
2024/01/31 06:06:16;;;;;;;9.65;5.13;;;;;;;-0.41;100.00;100494.88;6252756;22;20073;-94
2024/01/31 06:08:42;;;;;;;11.60;5.10;;;;;;;-0.52;100.00;100485.63;6252650;22;20026;-93
2024/01/31 06:11:08;;;;;;;14.60;5.35;;;;;;;-0.68;100.00;100442.25;6253192;22;20106;-93
2024/01/31 06:13:34;;;;;;;12.00;5.82;;;;;;;-0.30;100.00;100511.03;6252991;22;20023;-92
2024/01/31 06:16:00;;;;;;;11.77;5.35;;;;;;;-0.43;100.00;100501.75;6252154;22;20068;-93
2024/01/31 06:18:26;;;;;;;6.80;4.57;;;;;;;-0.47;100.00;100491.97;6251784;22;20015;-93
2024/01/31 06:20:52;;;;;;;10.02;5.65;;;;;;;-0.71;100.00;100449.97;6251623;22;20024;-92
2024/01/31 06:23:19;;;;;;;13.27;4.70;;;;;;;-0.31;100.00;100512.72;6252755;22;20015;-91
2024/01/31 06:25:45;;;;;;;10.40;5.50;;;;;;;-0.14;100.00;100533.50;6252539;22;20098;-93
2024/01/31 06:28:11;;;;;;;12.15;6.20;;;;;;;-0.26;100.00;100528.59;6251916;22;20039;-92
2024/01/31 06:30:44;;;;;;;12.45;5.63;;;;;;;-0.30;100.00;100525.00;6250737;22;20026;-92
2024/01/31 06:33:11;;;;;;;9.35;5.03;;;;;;;-0.54;100.00;100463.75;6252347;22;20027;-92
2024/01/31 06:35:40;;;;;;;7.80;4.50;;;;;;;-0.03;100.00;100542.72;6252940;22;20019;-93
2024/01/31 06:38:06;;;;;;;10.63;5.88;;;;;;;-0.27;100.00;100492.84;6255854;22;20327;-91
2024/01/31 06:40:33;;;;;;;10.65;5.45;;;;;;;-0.01;100.00;100518.41;6253402;22;20111;-93
2024/01/31 06:42:59;;;;;;;12.82;6.13;;;;;;;0.11;100.00;100528.53;6252733;22;20019;-93
2024/01/31 06:45:25;;;;;;;13.25;7.15;;;;;;;-0.12;100.00;100503.97;6255836;22;20101;-93
2024/01/31 06:47:51;;;;;;;10.30;6.25;;;;;;;-0.05;100.00;100515.59;6255600;22;20018;-93
2024/01/31 06:50:17;;;;;;;11.65;6.55;;;;;;;0.01;100.00;100510.63;6254246;22;20023;-94
2024/01/31 06:52:43;;;;;;;15.32;7.20;;;;;;;0.19;100.00;100519.25;6252685;22;20015;-92
2024/01/31 06:55:09;;;;;;;14.73;6.82;;;;;;;-0.13;100.00;100441.16;6255421;22;20477;-92
2024/01/31 06:57:37;;;;;;;13.27;6.50;;;;;;;0.27;100.00;100501.28;6254165;22;20006;-92
2024/01/31 07:00:04;;;;;;;15.10;7.75;;;;;;;0.44;100.00;100536.00;6252762;22;20472;-93
2024/01/31 07:02:30;;;;;;;18.33;8.00;;;;;;;0.56;100.00;100523.41;6252842;22;20043;-94
2024/01/31 07:04:56;;;;;;;13.60;7.40;;;;;;;0.22;100.00;100455.72;6252559;22;20023;-93
2024/01/31 07:07:22;;;;;;;15.65;8.25;;;;;;;0.61;100.00;100516.66;6253273;22;20422;-94
2024/01/31 07:09:48;;;;;;;18.77;9.32;;;;;;;0.43;100.00;100478.38;6254598;22;20022;-94
2024/01/31 07:12:14;;;;;;;17.58;9.27;;;;;;;0.29;100.00;100457.75;6253881;22;20034;-94
2024/01/31 07:14:42;;;;;;;23.02;9.68;;;;;;;0.58;100.00;100497.31;6254175;22;20019;-94
2024/01/31 07:17:09;;;;;;;16.35;7.80;;;;;;;0.73;100.00;100512.75;6253200;22;20022;-93
2024/01/31 07:19:35;;;;;;;28.23;8.85;;;;;;;0.88;100.00;100530.81;6252274;22;20020;-92
2024/01/31 07:22:01;;;;;;;12.80;7.70;;;;;;;0.91;100.00;100523.97;6252325;22;20107;-94
2024/01/31 07:24:28;;;;;;;15.13;7.15;;;;;;;1.00;100.00;100511.25;6252389;22;20046;-94
2024/01/31 07:26:54;;;;;;;16.92;7.57;;;;;;;1.21;100.00;100526.91;6252434;22;20046;-95
2024/01/31 07:29:19;;;;;;;18.80;8.10;;;;;;;1.16;100.00;100504.84;6252280;22;20438;-92
2024/01/31 07:31:47;;;;;;;15.95;8.38;;;;;;;1.01;100.00;100452.75;6251241;22;20035;-93
2024/01/31 07:34:15;;;;;;;18.90;8.35;;;;;;;1.39;100.00;100534.56;6251672;22;20047;-94
2024/01/31 07:36:52;;;;;;;16.88;9.07;;;;;;;0.92;100.00;100462.88;6252132;22;20022;-93
2024/01/31 07:39:18;;;;;;;28.25;12.55;;;;;;;1.39;100.00;100534.56;6253196;22;20019;-93
2024/01/31 07:41:44;;;;;;;20.92;10.95;;;;;;;1.43;100.00;100532.94;6282645;22;20034;-93
2024/01/31 07:44:10;;;;;;;16.05;8.82;;;;;;;1.29;99.16;100481.75;6256737;22;20011;-93
2024/01/31 07:46:36;;;;;;;24.58;9.18;;;;;;;1.24;97.58;100473.72;6254037;22;20434;-91
2024/01/31 07:49:04;;;;;;;15.77;7.95;;;;;;;1.41;95.43;100530.28;6254330;22;20019;-92
2024/01/31 07:51:30;;;;;;;18.48;8.93;;;;;;;1.46;96.14;100532.19;6252987;22;20114;-92
2024/01/31 07:53:57;;;;;;;15.85;8.02;;;;;;;1.11;96.37;100476.72;6254017;22;20023;-93
2024/01/31 07:56:22;;;;;;;19.92;7.93;;;;;;;1.28;95.84;100485.19;6254115;22;20106;-92
2024/01/31 07:58:48;;;;;;;14.65;8.40;;;;;;;1.70;94.51;100540.97;6254221;22;20043;-93
2024/01/31 08:01:14;;;;;;;15.05;7.03;;;;;;;1.59;94.56;100516.09;6253061;22;20047;-94
2024/01/31 08:03:41;;;;;;;17.48;7.63;;;;;;;1.20;93.70;100445.63;6253826;22;20350;-94
2024/01/31 08:06:09;;;;;;;11.45;6.25;;;;;;;1.70;91.70;100533.09;6254104;22;20331;-93
2024/01/31 08:08:37;;;;;;;16.05;7.15;;;;;;;1.48;91.47;100499.97;6253871;22;20089;-93
2024/01/31 08:11:03;;;;;;;24.92;10.73;;;;;;;1.59;91.94;100527.47;6253742;22;20019;-94
2024/01/31 08:13:29;;;;;;;17.92;9.10;;;;;;;1.34;91.71;100472.31;6253853;22;20054;-94
2024/01/31 08:15:55;;;;;;;17.00;9.07;;;;;;;1.72;90.77;100536.69;6252959;22;20020;-93
2024/01/31 08:18:20;;;;;;;16.92;8.90;;;;;;;1.39;90.91;100469.06;6253953;22;20026;-93
2024/01/31 08:20:46;;;;;;;21.98;10.32;;;;;;;1.90;91.16;100549.56;6253508;22;20019;-92
2024/01/31 08:23:13;;;;;;;16.75;8.55;;;;;;;2.00;90.74;100545.56;6254067;22;20016;-92
2024/01/31 08:25:39;;;;;;;20.23;10.18;;;;;;;1.96;89.67;100535.78;6253630;22;20020;-95
2024/01/31 08:28:05;;;;;;;20.10;8.02;;;;;;;2.05;89.68;100525.59;6253801;22;20026;-93
2024/01/31 08:30:31;;;;;;;22.58;10.27;;;;;;;2.26;89.13;100531.59;6253577;22;20377;-94
2024/01/31 08:32:57;;;;;;;19.13;10.13;;;;;;;2.54;88.17;100545.69;6253012;22;20016;-94
2024/01/31 08:35:23;;;;;;;16.73;9.32;;;;;;;2.70;86.48;100541.84;6252792;22;20023;-93
2024/01/31 08:37:49;;;;;;;18.83;9.18;;;;;;;2.82;84.96;100541.31;6253824;22;20019;-94
2024/01/31 08:40:16;;;;;;;19.63;10.32;;;;;;;2.83;84.59;100504.59;6253967;22;20042;-93
2024/01/31 08:42:42;;;;;;;22.58;9.02;;;;;;;2.80;83.10;100459.84;6254020;22;20024;-94
2024/01/31 08:45:10;;;;;;;18.17;9.23;;;;;;;3.18;81.97;100504.81;6252288;22;20323;-94
2024/01/31 08:47:36;;;;;;;25.50;10.55;;;;;;;3.31;79.35;100518.34;6254325;22;20020;-93
2024/01/31 08:50:02;;;;;;;24.52;8.43;;;;;;;3.44;80.74;100526.63;6254871;22;20099;-93
2024/01/31 08:52:28;;;;;;;16.73;8.10;;;;;;;3.32;80.56;100463.19;6255083;22;20491;-94
2024/01/31 08:54:54;;;;;;;17.48;8.75;;;;;;;3.58;77.72;100468.28;6254851;22;20062;-93
2024/01/31 08:57:21;;;;;;;18.63;9.77;;;;;;;4.09;77.31;100549.53;6254163;22;20016;-93
2024/01/31 08:59:47;;;;;;;22.80;8.75;;;;;;;4.03;76.92;100517.78;6255440;22;20051;-93
2024/01/31 09:02:13;;;;;;;16.60;8.23;;;;;;;4.04;75.32;100512.56;6255063;22;20012;-94
2024/01/31 09:04:39;;;;;;;13.30;8.52;;;;;;;3.85;75.81;100498.00;6254313;22;20078;-93
2024/01/31 09:07:04;;;;;;;17.38;8.68;;;;;;;3.87;75.07;100529.63;6254225;22;20069;-94
2024/01/31 09:09:32;;;;;;;15.00;8.20;;;;;;;3.63;75.80;100485.09;6253843;22;19996;-94
2024/01/31 09:11:58;;;;;;;14.82;9.00;;;;;;;3.56;77.64;100526.13;6254103;22;20015;-93
2024/01/31 09:14:25;;;;;;;17.27;8.23;;;;;;;3.37;77.97;100465.94;6253739;22;20098;-94
2024/01/31 09:16:51;;;;;;;16.92;8.82;;;;;;;3.73;77.17;100510.81;6252977;22;20047;-94
2024/01/31 09:19:17;;;;;;;17.55;8.10;;;;;;;3.71;75.86;100504.63;6255031;22;20022;-94
2024/01/31 09:21:43;;;;;;;12.02;7.85;;;;;;;3.98;76.12;100501.84;6254723;22;20519;-94
2024/01/31 09:24:09;;;;;;;17.02;8.75;;;;;;;4.33;74.61;100534.38;6255021;22;20050;-93
2024/01/31 09:26:35;;;;;;;17.25;7.70;;;;;;;3.99;75.06;100455.38;6257429;22;20079;-93
2024/01/31 09:29:01;;;;;;;16.20;8.45;;;;;;;4.49;74.70;100508.47;6257181;22;20046;-94
2024/01/31 09:31:28;;;;;;;19.50;8.80;;;;;;;4.80;74.17;100514.50;6257791;22;20367;-94
2024/01/31 09:33:54;;;;;;;16.20;9.05;;;;;;;4.70;73.39;100484.38;6257447;22;20051;-94
2024/01/31 09:36:21;;;;;;;17.02;8.93;;;;;;;4.79;72.83;100484.59;6256398;22;20020;-94
2024/01/31 09:38:48;;;;;;;26.40;8.80;;;;;;;4.96;72.09;100498.19;6257585;22;20338;-93
2024/01/31 09:41:14;;;;;;;15.70;9.35;;;;;;;4.93;71.43;100463.84;6256637;22;20019;-94
2024/01/31 09:43:42;;;;;;;23.05;9.10;;;;;;;4.90;70.19;100442.66;6256004;22;20019;-94
2024/01/31 09:46:08;;;;;;;14.70;8.50;;;;;;;5.20;69.19;100447.72;6256701;22;20446;-94
2024/01/31 09:48:37;;;;;;;19.65;10.02;;;;;;;5.53;67.80;100516.19;6257750;22;20020;-94
2024/01/31 09:51:03;;;;;;;20.80;11.60;;;;;;;5.73;68.70;100507.78;6256264;22;20111;-92
2024/01/31 09:53:33;;;;;;;16.65;8.55;;;;;;;5.49;68.66;100435.16;6257243;22;20442;-95
2024/01/31 09:55:59;;;;;;;16.45;9.35;;;;;;;5.85;67.54;100470.16;6258532;22;20051;-93
2024/01/31 09:58:25;;;;;;;18.15;8.60;;;;;;;6.10;66.54;100488.28;6255779;22;20445;-94
2024/01/31 10:00:52;;;;;;;17.25;8.82;;;;;;;6.24;66.15;100512.31;6253219;22;20024;-92
2024/01/31 10:03:19;;;;;;;17.27;9.30;;;;;;;5.80;66.25;100422.56;6253264;22;20021;-94
2024/01/31 10:05:47;;;;;;;24.42;11.68;;;;;;;5.97;67.05;100455.47;6255098;22;20015;-93
2024/01/31 10:08:13;;;;;;;22.33;11.07;;;;;;;5.96;67.50;100495.06;6254110;22;20464;-94
2024/01/31 10:10:39;;;;;;;23.58;10.52;;;;;;;6.08;67.64;100489.13;6253466;22;20019;-92
2024/01/31 10:13:06;;;;;;;22.90;11.60;;;;;;;5.95;68.39;100472.16;6254042;22;20031;-94
2024/01/31 10:15:32;;;;;;;24.08;11.25;;;;;;;6.18;68.34;100475.25;6253566;22;20441;-94
2024/01/31 10:17:58;;;;;;;24.83;10.90;;;;;;;5.99;66.77;100410.63;6254052;22;20030;-94
2024/01/31 10:20:24;;;;;;;25.88;11.45;;;;;;;5.99;66.49;100454.63;6253694;22;20089;-94
2024/01/31 10:22:51;;;;;;;26.13;12.52;;;;;;;5.96;66.81;100450.16;6254628;22;20403;-95
2024/01/31 10:25:18;;;;;;;21.88;11.57;;;;;;;5.89;67.64;100409.53;6253424;22;20011;-94
2024/01/31 10:27:46;;;;;;;25.42;13.10;;;;;;;6.11;66.28;100400.25;6255402;22;20051;-94
2024/01/31 10:30:13;;;;;;;22.98;11.27;;;;;;;6.30;66.90;100390.91;6256097;22;20016;-94
2024/01/31 10:32:44;;;;;;;30.52;13.82;;;;;;;6.64;65.84;100436.38;6253151;22;20023;-95
2024/01/31 10:35:11;;;;;;;28.95;12.45;;;;;;;6.60;64.86;100394.91;6279774;22;20330;-94
2024/01/31 10:37:37;;;;;;;25.52;12.95;;;;;;;6.82;64.50;100448.09;6254224;22;20081;-93
2024/01/31 10:40:06;;;;;;;25.05;12.25;;;;;;;6.95;65.55;100443.00;6253095;22;20004;-94
2024/01/31 10:42:32;;;;;;;21.48;11.82;;;;;;;7.18;65.34;100450.38;6280011;22;20031;-93
2024/01/31 10:45:01;;;;;;;19.48;10.82;;;;;;;6.94;64.51;100390.97;6254491;22;20031;-95
2024/01/31 10:47:27;;;;;;;25.88;11.68;;;;;;;7.02;63.83;100390.19;6253457;22;20016;-93
2024/01/31 10:49:54;;;;;;;27.25;11.85;;;;;;;6.95;63.53;100365.41;6252929;22;20023;-94
2024/01/31 10:52:24;;;;;;;23.85;12.38;;;;;;;6.70;64.45;100399.47;6253726;22;20019;-94
2024/01/31 10:54:55;;;;;;;24.35;12.10;;;;;;;6.54;65.57;100415.94;6253137;22;20019;-93
2024/01/31 10:57:23;;;;;;;25.55;10.90;;;;;;;6.98;65.15;100447.44;6252812;22;20473;-94
2024/01/31 10:59:50;;;;;;;22.52;11.38;;;;;;;6.96;63.88;100423.63;6253304;22;20045;-96
2024/01/31 11:02:16;;;;;;;21.00;11.05;;;;;;;7.22;63.68;100432.78;6251049;22;20016;-94
2024/01/31 11:04:42;;;;;;;22.85;12.80;;;;;;;6.98;63.99;100386.59;6253478;22;20081;-94
2024/01/31 11:07:18;;;;;;;24.75;12.00;;;;;;;7.17;62.81;100388.63;6252782;22;20114;-93
2024/01/31 11:09:44;;;;;;;19.85;11.40;;;;;;;7.00;62.86;100350.47;6253665;22;20019;-94
2024/01/31 11:12:12;;;;;;;25.48;11.77;;;;;;;7.46;61.07;100430.47;6255056;22;20114;-95
2024/01/31 11:14:42;;;;;;;25.17;12.13;;;;;;;7.38;60.10;100398.59;6253665;22;20016;-93
2024/01/31 11:17:09;;;;;;;27.65;11.18;;;;;;;7.38;60.61;100395.06;6253295;22;20026;-93